sensor_id;sensor_type;location;lat;lon;timestamp;P1;durP1;ratioP1;P2;durP2;ratioP2
2187;SDS011;1100;52.014;8.540;2022-11-20T00:00:44;23.70;;;9.97;;
2187;SDS011;1100;52.014;8.540;2022-11-20T00:03:12;24.85;;;10.13;;
2187;SDS011;1100;52.014;8.540;2022-11-20T00:05:37;23.33;;;10.07;;
2187;SDS011;1100;52.014;8.540;2022-11-20T00:08:05;22.00;;;9.38;;
2187;SDS011;1100;52.014;8.540;2022-11-20T00:10:31;19.53;;;8.77;;
2187;SDS011;1100;52.014;8.540;2022-11-20T00:12:57;20.70;;;9.23;;
2187;SDS011;1100;52.014;8.540;2022-11-20T00:15:23;22.33;;;8.90;;
2187;SDS011;1100;52.014;8.540;2022-11-20T00:17:48;26.77;;;9.47;;
2187;SDS011;1100;52.014;8.540;2022-11-20T00:20:14;29.05;;;9.63;;
2187;SDS011;1100;52.014;8.540;2022-11-20T00:22:39;25.13;;;9.18;;
2187;SDS011;1100;52.014;8.540;2022-11-20T00:25:04;22.67;;;9.53;;
2187;SDS011;1100;52.014;8.540;2022-11-20T00:27:30;21.67;;;9.37;;
2187;SDS011;1100;52.014;8.540;2022-11-20T00:29:55;24.57;;;9.83;;
2187;SDS011;1100;52.014;8.540;2022-11-20T00:32:20;25.07;;;8.80;;
2187;SDS011;1100;52.014;8.540;2022-11-20T00:34:46;22.90;;;8.40;;
2187;SDS011;1100;52.014;8.540;2022-11-20T00:37:11;19.63;;;8.00;;
2187;SDS011;1100;52.014;8.540;2022-11-20T00:39:39;22.55;;;7.97;;
2187;SDS011;1100;52.014;8.540;2022-11-20T00:42:05;18.50;;;8.40;;
2187;SDS011;1100;52.014;8.540;2022-11-20T00:44:30;25.33;;;8.60;;
2187;SDS011;1100;52.014;8.540;2022-11-20T00:46:56;19.37;;;7.63;;
2187;SDS011;1100;52.014;8.540;2022-11-20T00:49:21;21.30;;;7.87;;
2187;SDS011;1100;52.014;8.540;2022-11-20T00:51:46;20.00;;;7.97;;
2187;SDS011;1100;52.014;8.540;2022-11-20T00:54:11;19.13;;;7.53;;
2187;SDS011;1100;52.014;8.540;2022-11-20T00:56:37;22.43;;;8.57;;
2187;SDS011;1100;52.014;8.540;2022-11-20T00:59:02;20.90;;;8.33;;
2187;SDS011;1100;52.014;8.540;2022-11-20T01:01:27;21.63;;;8.83;;
2187;SDS011;1100;52.014;8.540;2022-11-20T01:03:57;18.98;;;8.48;;
2187;SDS011;1100;52.014;8.540;2022-11-20T01:06:24;22.40;;;8.80;;
2187;SDS011;1100;52.014;8.540;2022-11-20T01:08:58;23.63;;;9.93;;
2187;SDS011;1100;52.014;8.540;2022-11-20T01:11:29;22.83;;;8.98;;
2187;SDS011;1100;52.014;8.540;2022-11-20T01:13:57;21.08;;;9.52;;
2187;SDS011;1100;52.014;8.540;2022-11-20T01:16:25;21.38;;;9.20;;
2187;SDS011;1100;52.014;8.540;2022-11-20T01:18:51;21.23;;;8.27;;
2187;SDS011;1100;52.014;8.540;2022-11-20T01:21:28;24.33;;;9.17;;
2187;SDS011;1100;52.014;8.540;2022-11-20T01:23:55;22.65;;;8.70;;
2187;SDS011;1100;52.014;8.540;2022-11-20T01:26:28;20.60;;;9.18;;
2187;SDS011;1100;52.014;8.540;2022-11-20T01:28:57;21.08;;;9.00;;
2187;SDS011;1100;52.014;8.540;2022-11-20T01:31:25;18.85;;;8.15;;
2187;SDS011;1100;52.014;8.540;2022-11-20T01:33:53;25.30;;;9.00;;
2187;SDS011;1100;52.014;8.540;2022-11-20T01:36:20;23.30;;;8.43;;
2187;SDS011;1100;52.014;8.540;2022-11-20T01:38:50;22.08;;;9.35;;
2187;SDS011;1100;52.014;8.540;2022-11-20T01:41:17;19.77;;;8.35;;
2187;SDS011;1100;52.014;8.540;2022-11-20T01:44:01;20.30;;;8.27;;
2187;SDS011;1100;52.014;8.540;2022-11-20T01:46:28;20.35;;;9.07;;
2187;SDS011;1100;52.014;8.540;2022-11-20T01:48:54;20.88;;;8.82;;
2187;SDS011;1100;52.014;8.540;2022-11-20T01:51:29;17.45;;;7.55;;
2187;SDS011;1100;52.014;8.540;2022-11-20T01:54:00;22.27;;;8.33;;
2187;SDS011;1100;52.014;8.540;2022-11-20T01:56:33;18.70;;;8.45;;
2187;SDS011;1100;52.014;8.540;2022-11-20T01:59:04;21.23;;;8.32;;
2187;SDS011;1100;52.014;8.540;2022-11-20T02:01:31;24.40;;;8.98;;
2187;SDS011;1100;52.014;8.540;2022-11-20T02:03:58;21.77;;;8.25;;
2187;SDS011;1100;52.014;8.540;2022-11-20T02:06:32;20.77;;;8.10;;
2187;SDS011;1100;52.014;8.540;2022-11-20T02:09:04;24.08;;;8.30;;
2187;SDS011;1100;52.014;8.540;2022-11-20T02:11:30;19.53;;;8.47;;
2187;SDS011;1100;52.014;8.540;2022-11-20T02:13:56;22.15;;;9.10;;
2187;SDS011;1100;52.014;8.540;2022-11-20T02:16:23;16.87;;;6.57;;
2187;SDS011;1100;52.014;8.540;2022-11-20T02:18:50;17.85;;;7.20;;
2187;SDS011;1100;52.014;8.540;2022-11-20T02:21:26;19.35;;;6.97;;
2187;SDS011;1100;52.014;8.540;2022-11-20T02:26:28;17.60;;;6.40;;
2187;SDS011;1100;52.014;8.540;2022-11-20T02:28:55;17.00;;;6.60;;
2187;SDS011;1100;52.014;8.540;2022-11-20T02:31:23;18.20;;;6.43;;
2187;SDS011;1100;52.014;8.540;2022-11-20T02:33:53;18.50;;;6.73;;
2187;SDS011;1100;52.014;8.540;2022-11-20T02:36:19;16.20;;;6.30;;
2187;SDS011;1100;52.014;8.540;2022-11-20T02:38:45;15.53;;;5.07;;
2187;SDS011;1100;52.014;8.540;2022-11-20T02:41:10;16.13;;;6.93;;
2187;SDS011;1100;52.014;8.540;2022-11-20T02:43:35;15.20;;;5.53;;
2187;SDS011;1100;52.014;8.540;2022-11-20T02:46:01;17.30;;;6.13;;
2187;SDS011;1100;52.014;8.540;2022-11-20T02:48:26;14.73;;;5.73;;
2187;SDS011;1100;52.014;8.540;2022-11-20T02:50:51;14.23;;;5.88;;
2187;SDS011;1100;52.014;8.540;2022-11-20T02:53:16;16.50;;;5.77;;
2187;SDS011;1100;52.014;8.540;2022-11-20T02:55:42;17.17;;;6.47;;
2187;SDS011;1100;52.014;8.540;2022-11-20T02:58:07;16.73;;;5.50;;
2187;SDS011;1100;52.014;8.540;2022-11-20T03:00:32;13.77;;;5.70;;
2187;SDS011;1100;52.014;8.540;2022-11-20T03:02:58;12.13;;;5.05;;
2187;SDS011;1100;52.014;8.540;2022-11-20T03:05:23;14.27;;;5.10;;
2187;SDS011;1100;52.014;8.540;2022-11-20T03:07:49;15.60;;;5.83;;
2187;SDS011;1100;52.014;8.540;2022-11-20T03:10:14;16.63;;;5.80;;
2187;SDS011;1100;52.014;8.540;2022-11-20T03:12:39;15.40;;;5.37;;
2187;SDS011;1100;52.014;8.540;2022-11-20T03:15:05;16.00;;;7.00;;
2187;SDS011;1100;52.014;8.540;2022-11-20T03:17:33;19.13;;;8.10;;
2187;SDS011;1100;52.014;8.540;2022-11-20T03:19:59;19.98;;;8.00;;
2187;SDS011;1100;52.014;8.540;2022-11-20T03:22:25;20.27;;;9.07;;
2187;SDS011;1100;52.014;8.540;2022-11-20T03:24:53;18.65;;;7.72;;
2187;SDS011;1100;52.014;8.540;2022-11-20T03:27:18;21.87;;;9.13;;
2187;SDS011;1100;52.014;8.540;2022-11-20T03:29:49;20.43;;;8.87;;
2187;SDS011;1100;52.014;8.540;2022-11-20T03:32:16;22.60;;;8.90;;
2187;SDS011;1100;52.014;8.540;2022-11-20T03:34:42;20.45;;;8.40;;
2187;SDS011;1100;52.014;8.540;2022-11-20T03:37:07;24.42;;;10.00;;
2187;SDS011;1100;52.014;8.540;2022-11-20T03:39:32;22.07;;;9.20;;
2187;SDS011;1100;52.014;8.540;2022-11-20T03:41:58;23.27;;;9.23;;
2187;SDS011;1100;52.014;8.540;2022-11-20T03:44:23;22.70;;;9.10;;
2187;SDS011;1100;52.014;8.540;2022-11-20T03:46:48;19.53;;;8.57;;
2187;SDS011;1100;52.014;8.540;2022-11-20T03:49:14;18.30;;;8.50;;
2187;SDS011;1100;52.014;8.540;2022-11-20T03:51:39;23.03;;;9.07;;
2187;SDS011;1100;52.014;8.540;2022-11-20T03:54:06;21.50;;;8.35;;
2187;SDS011;1100;52.014;8.540;2022-11-20T03:56:33;19.60;;;8.67;;
2187;SDS011;1100;52.014;8.540;2022-11-20T03:59:04;20.52;;;9.50;;
2187;SDS011;1100;52.014;8.540;2022-11-20T04:01:31;24.15;;;10.15;;
2187;SDS011;1100;52.014;8.540;2022-11-20T04:03:58;22.25;;;9.40;;
2187;SDS011;1100;52.014;8.540;2022-11-20T04:08:51;20.92;;;7.82;;
2187;SDS011;1100;52.014;8.540;2022-11-20T04:11:19;20.85;;;8.35;;
2187;SDS011;1100;52.014;8.540;2022-11-20T04:13:50;19.98;;;7.13;;
2187;SDS011;1100;52.014;8.540;2022-11-20T04:16:18;16.03;;;6.10;;
2187;SDS011;1100;52.014;8.540;2022-11-20T04:18:44;16.88;;;5.93;;
2187;SDS011;1100;52.014;8.540;2022-11-20T04:21:10;16.27;;;6.47;;
2187;SDS011;1100;52.014;8.540;2022-11-20T04:23:36;17.27;;;5.80;;
2187;SDS011;1100;52.014;8.540;2022-11-20T04:26:06;14.63;;;5.68;;
2187;SDS011;1100;52.014;8.540;2022-11-20T04:28:33;13.20;;;4.95;;
2187;SDS011;1100;52.014;8.540;2022-11-20T04:31:09;13.17;;;5.40;;
2187;SDS011;1100;52.014;8.540;2022-11-20T04:33:36;14.13;;;5.90;;
2187;SDS011;1100;52.014;8.540;2022-11-20T04:36:05;14.82;;;5.70;;
2187;SDS011;1100;52.014;8.540;2022-11-20T04:38:49;16.23;;;5.88;;
2187;SDS011;1100;52.014;8.540;2022-11-20T04:41:16;14.02;;;5.40;;
2187;SDS011;1100;52.014;8.540;2022-11-20T04:43:47;16.40;;;6.70;;
2187;SDS011;1100;52.014;8.540;2022-11-20T04:46:14;14.65;;;6.32;;
2187;SDS011;1100;52.014;8.540;2022-11-20T04:48:40;15.75;;;6.93;;
2187;SDS011;1100;52.014;8.540;2022-11-20T04:51:06;15.47;;;6.47;;
2187;SDS011;1100;52.014;8.540;2022-11-20T04:53:31;18.50;;;6.97;;
2187;SDS011;1100;52.014;8.540;2022-11-20T04:56:04;18.60;;;7.32;;
2187;SDS011;1100;52.014;8.540;2022-11-20T04:58:31;17.58;;;6.95;;
2187;SDS011;1100;52.014;8.540;2022-11-20T05:01:16;18.00;;;6.77;;
2187;SDS011;1100;52.014;8.540;2022-11-20T05:03:44;18.50;;;7.35;;
2187;SDS011;1100;52.014;8.540;2022-11-20T05:06:14;18.60;;;7.63;;
2187;SDS011;1100;52.014;8.540;2022-11-20T05:08:41;18.77;;;7.50;;
2187;SDS011;1100;52.014;8.540;2022-11-20T05:11:08;18.92;;;7.78;;
2187;SDS011;1100;52.014;8.540;2022-11-20T05:13:38;19.00;;;8.80;;
2187;SDS011;1100;52.014;8.540;2022-11-20T05:16:05;19.95;;;8.30;;
2187;SDS011;1100;52.014;8.540;2022-11-20T05:18:41;16.03;;;6.93;;
2187;SDS011;1100;52.014;8.540;2022-11-20T05:21:07;16.67;;;7.15;;
2187;SDS011;1100;52.014;8.540;2022-11-20T05:23:35;19.77;;;6.85;;
2187;SDS011;1100;52.014;8.540;2022-11-20T05:26:01;17.25;;;6.43;;
2187;SDS011;1100;52.014;8.540;2022-11-20T05:28:27;17.05;;;7.10;;
2187;SDS011;1100;52.014;8.540;2022-11-20T05:30:54;17.30;;;6.50;;
2187;SDS011;1100;52.014;8.540;2022-11-20T05:33:20;14.63;;;5.68;;
2187;SDS011;1100;52.014;8.540;2022-11-20T05:35:46;14.77;;;5.40;;
2187;SDS011;1100;52.014;8.540;2022-11-20T05:38:11;14.82;;;5.57;;
2187;SDS011;1100;52.014;8.540;2022-11-20T05:40:37;12.23;;;5.33;;
2187;SDS011;1100;52.014;8.540;2022-11-20T05:43:02;12.00;;;4.17;;
2187;SDS011;1100;52.014;8.540;2022-11-20T05:45:28;10.90;;;4.30;;
2187;SDS011;1100;52.014;8.540;2022-11-20T05:47:53;14.40;;;4.95;;
2187;SDS011;1100;52.014;8.540;2022-11-20T05:50:18;12.80;;;4.30;;
2187;SDS011;1100;52.014;8.540;2022-11-20T05:52:44;13.97;;;5.67;;
2187;SDS011;1100;52.014;8.540;2022-11-20T05:55:09;13.80;;;5.27;;
2187;SDS011;1100;52.014;8.540;2022-11-20T05:57:35;15.10;;;4.80;;
2187;SDS011;1100;52.014;8.540;2022-11-20T06:00:01;10.43;;;4.13;;
2187;SDS011;1100;52.014;8.540;2022-11-20T06:02:28;11.05;;;4.30;;
2187;SDS011;1100;52.014;8.540;2022-11-20T06:04:54;11.13;;;4.20;;
2187;SDS011;1100;52.014;8.540;2022-11-20T06:07:19;11.97;;;3.90;;
2187;SDS011;1100;52.014;8.540;2022-11-20T06:09:45;12.73;;;4.23;;
2187;SDS011;1100;52.014;8.540;2022-11-20T06:12:10;11.07;;;4.07;;
2187;SDS011;1100;52.014;8.540;2022-11-20T06:14:35;12.73;;;3.57;;
2187;SDS011;1100;52.014;8.540;2022-11-20T06:17:00;9.33;;;3.60;;
2187;SDS011;1100;52.014;8.540;2022-11-20T06:19:26;11.80;;;3.30;;
2187;SDS011;1100;52.014;8.540;2022-11-20T06:21:51;9.97;;;3.13;;
2187;SDS011;1100;52.014;8.540;2022-11-20T06:24:17;11.50;;;3.47;;
2187;SDS011;1100;52.014;8.540;2022-11-20T06:26:42;8.82;;;2.58;;
2187;SDS011;1100;52.014;8.540;2022-11-20T06:29:08;9.75;;;3.08;;
2187;SDS011;1100;52.014;8.540;2022-11-20T06:31:33;11.43;;;2.70;;
2187;SDS011;1100;52.014;8.540;2022-11-20T06:34:02;9.80;;;3.10;;
2187;SDS011;1100;52.014;8.540;2022-11-20T06:36:28;9.70;;;2.90;;
2187;SDS011;1100;52.014;8.540;2022-11-20T06:38:53;9.90;;;3.23;;
2187;SDS011;1100;52.014;8.540;2022-11-20T06:41:19;8.57;;;2.80;;
2187;SDS011;1100;52.014;8.540;2022-11-20T06:43:46;10.35;;;3.60;;
2187;SDS011;1100;52.014;8.540;2022-11-20T06:46:12;10.82;;;2.80;;
2187;SDS011;1100;52.014;8.540;2022-11-20T06:48:42;10.40;;;3.47;;
2187;SDS011;1100;52.014;8.540;2022-11-20T06:51:07;10.03;;;3.00;;
2187;SDS011;1100;52.014;8.540;2022-11-20T06:53:33;10.73;;;3.20;;
2187;SDS011;1100;52.014;8.540;2022-11-20T06:55:59;8.75;;;2.47;;
2187;SDS011;1100;52.014;8.540;2022-11-20T06:58:29;9.67;;;3.00;;
2187;SDS011;1100;52.014;8.540;2022-11-20T07:00:59;11.43;;;3.47;;
2187;SDS011;1100;52.014;8.540;2022-11-20T07:03:29;11.80;;;4.18;;
2187;SDS011;1100;52.014;8.540;2022-11-20T07:05:55;11.33;;;3.40;;
2187;SDS011;1100;52.014;8.540;2022-11-20T07:08:21;10.98;;;3.92;;
2187;SDS011;1100;52.014;8.540;2022-11-20T07:10:47;18.83;;;5.20;;
2187;SDS011;1100;52.014;8.540;2022-11-20T07:13:12;22.00;;;6.43;;
2187;SDS011;1100;52.014;8.540;2022-11-20T07:15:37;21.60;;;6.97;;
2187;SDS011;1100;52.014;8.540;2022-11-20T07:18:03;29.30;;;7.35;;
2187;SDS011;1100;52.014;8.540;2022-11-20T07:20:28;26.83;;;8.37;;
2187;SDS011;1100;52.014;8.540;2022-11-20T07:22:54;27.70;;;9.40;;
2187;SDS011;1100;52.014;8.540;2022-11-20T07:25:20;27.85;;;7.82;;
2187;SDS011;1100;52.014;8.540;2022-11-20T07:27:46;27.53;;;8.57;;
2187;SDS011;1100;52.014;8.540;2022-11-20T07:30:11;24.53;;;7.13;;
2187;SDS011;1100;52.014;8.540;2022-11-20T07:32:38;25.05;;;7.95;;
2187;SDS011;1100;52.014;8.540;2022-11-20T07:35:04;24.80;;;8.27;;
2187;SDS011;1100;52.014;8.540;2022-11-20T07:37:30;26.23;;;7.88;;
2187;SDS011;1100;52.014;8.540;2022-11-20T07:39:55;22.43;;;7.33;;
2187;SDS011;1100;52.014;8.540;2022-11-20T07:42:20;25.13;;;7.83;;
2187;SDS011;1100;52.014;8.540;2022-11-20T07:44:45;27.07;;;8.50;;
2187;SDS011;1100;52.014;8.540;2022-11-20T07:47:11;30.37;;;8.40;;
2187;SDS011;1100;52.014;8.540;2022-11-20T07:49:36;25.73;;;8.10;;
2187;SDS011;1100;52.014;8.540;2022-11-20T07:52:01;32.67;;;8.32;;
2187;SDS011;1100;52.014;8.540;2022-11-20T07:54:27;31.83;;;8.80;;
2187;SDS011;1100;52.014;8.540;2022-11-20T07:56:52;31.20;;;9.40;;
2187;SDS011;1100;52.014;8.540;2022-11-20T07:59:18;31.58;;;9.68;;
2187;SDS011;1100;52.014;8.540;2022-11-20T08:01:44;29.17;;;9.38;;
2187;SDS011;1100;52.014;8.540;2022-11-20T08:04:09;29.70;;;9.67;;
2187;SDS011;1100;52.014;8.540;2022-11-20T08:06:35;27.23;;;9.77;;
2187;SDS011;1100;52.014;8.540;2022-11-20T08:09:01;26.48;;;10.02;;
2187;SDS011;1100;52.014;8.540;2022-11-20T08:11:26;24.03;;;8.63;;
2187;SDS011;1100;52.014;8.540;2022-11-20T08:14:10;26.23;;;9.00;;
2187;SDS011;1100;52.014;8.540;2022-11-20T08:16:42;25.10;;;9.63;;
2187;SDS011;1100;52.014;8.540;2022-11-20T08:22:02;25.52;;;9.68;;
2187;SDS011;1100;52.014;8.540;2022-11-20T08:24:28;22.00;;;7.37;;
2187;SDS011;1100;52.014;8.540;2022-11-20T08:26:53;21.07;;;8.63;;
2187;SDS011;1100;52.014;8.540;2022-11-20T08:29:18;23.90;;;8.00;;
2187;SDS011;1100;52.014;8.540;2022-11-20T08:31:44;21.80;;;8.53;;
2187;SDS011;1100;52.014;8.540;2022-11-20T08:34:10;19.23;;;7.43;;
2187;SDS011;1100;52.014;8.540;2022-11-20T08:36:35;22.08;;;7.10;;
2187;SDS011;1100;52.014;8.540;2022-11-20T08:39:01;19.40;;;8.57;;
2187;SDS011;1100;52.014;8.540;2022-11-20T08:41:28;19.77;;;8.13;;
2187;SDS011;1100;52.014;8.540;2022-11-20T08:43:56;22.63;;;8.77;;
2187;SDS011;1100;52.014;8.540;2022-11-20T08:46:26;32.05;;;10.98;;
2187;SDS011;1100;52.014;8.540;2022-11-20T08:48:55;33.17;;;11.00;;
2187;SDS011;1100;52.014;8.540;2022-11-20T08:51:21;29.37;;;10.37;;
2187;SDS011;1100;52.014;8.540;2022-11-20T08:53:46;30.03;;;10.27;;
2187;SDS011;1100;52.014;8.540;2022-11-20T08:56:13;23.30;;;8.73;;
2187;SDS011;1100;52.014;8.540;2022-11-20T08:58:39;23.85;;;9.15;;
2187;SDS011;1100;52.014;8.540;2022-11-20T09:01:04;21.30;;;8.30;;
2187;SDS011;1100;52.014;8.540;2022-11-20T09:03:30;14.73;;;6.40;;
2187;SDS011;1100;52.014;8.540;2022-11-20T09:06:04;15.10;;;5.68;;
2187;SDS011;1100;52.014;8.540;2022-11-20T09:08:31;18.17;;;7.00;;
2187;SDS011;1100;52.014;8.540;2022-11-20T09:10:57;17.55;;;5.75;;
2187;SDS011;1100;52.014;8.540;2022-11-20T09:13:24;17.67;;;6.25;;
2187;SDS011;1100;52.014;8.540;2022-11-20T09:15:56;16.17;;;5.67;;
2187;SDS011;1100;52.014;8.540;2022-11-20T09:18:24;14.38;;;4.95;;
2187;SDS011;1100;52.014;8.540;2022-11-20T09:20:50;14.63;;;5.78;;
2187;SDS011;1100;52.014;8.540;2022-11-20T09:23:15;14.40;;;5.40;;
2187;SDS011;1100;52.014;8.540;2022-11-20T09:25:41;13.80;;;5.05;;
2187;SDS011;1100;52.014;8.540;2022-11-20T09:28:07;14.02;;;4.88;;
2187;SDS011;1100;52.014;8.540;2022-11-20T09:30:32;12.00;;;4.80;;
2187;SDS011;1100;52.014;8.540;2022-11-20T09:32:58;13.27;;;4.77;;
2187;SDS011;1100;52.014;8.540;2022-11-20T09:35:23;12.73;;;4.60;;
2187;SDS011;1100;52.014;8.540;2022-11-20T09:37:49;11.97;;;3.73;;
2187;SDS011;1100;52.014;8.540;2022-11-20T09:40:24;11.87;;;4.30;;
2187;SDS011;1100;52.014;8.540;2022-11-20T09:45:45;12.83;;;4.67;;
2187;SDS011;1100;52.014;8.540;2022-11-20T09:54:04;10.15;;;3.78;;
2187;SDS011;1100;52.014;8.540;2022-11-20T09:56:39;10.85;;;4.03;;
2187;SDS011;1100;52.014;8.540;2022-11-20T09:59:13;11.60;;;4.20;;
2187;SDS011;1100;52.014;8.540;2022-11-20T10:01:48;12.48;;;4.75;;
2187;SDS011;1100;52.014;8.540;2022-11-20T10:04:18;16.45;;;6.10;;
2187;SDS011;1100;52.014;8.540;2022-11-20T10:06:53;15.35;;;5.45;;
2187;SDS011;1100;52.014;8.540;2022-11-20T10:09:22;14.95;;;5.10;;
2187;SDS011;1100;52.014;8.540;2022-11-20T10:20:10;12.57;;;5.00;;
2187;SDS011;1100;52.014;8.540;2022-11-20T10:22:47;15.10;;;5.85;;
2187;SDS011;1100;52.014;8.540;2022-11-20T10:25:18;16.00;;;6.00;;
2187;SDS011;1100;52.014;8.540;2022-11-20T10:30:17;13.05;;;4.60;;
2187;SDS011;1100;52.014;8.540;2022-11-20T10:32:47;15.10;;;5.05;;
2187;SDS011;1100;52.014;8.540;2022-11-20T10:35:21;13.98;;;4.80;;
2187;SDS011;1100;52.014;8.540;2022-11-20T10:37:55;14.63;;;5.00;;
2187;SDS011;1100;52.014;8.540;2022-11-20T10:40:32;13.43;;;4.32;;
2187;SDS011;1100;52.014;8.540;2022-11-20T10:43:07;16.42;;;5.95;;
2187;SDS011;1100;52.014;8.540;2022-11-20T10:48:15;15.20;;;5.00;;
2187;SDS011;1100;52.014;8.540;2022-11-20T10:54:32;14.20;;;5.18;;
2187;SDS011;1100;52.014;8.540;2022-11-20T10:56:53;14.30;;;5.22;;
2187;SDS011;1100;52.014;8.540;2022-11-20T11:02:21;15.65;;;5.30;;
2187;SDS011;1100;52.014;8.540;2022-11-20T11:04:52;11.87;;;4.57;;
2187;SDS011;1100;52.014;8.540;2022-11-20T11:07:25;11.68;;;4.32;;
2187;SDS011;1100;52.014;8.540;2022-11-20T11:09:55;12.77;;;4.68;;
2187;SDS011;1100;52.014;8.540;2022-11-20T11:12:22;11.80;;;4.68;;
2187;SDS011;1100;52.014;8.540;2022-11-20T11:14:50;10.30;;;4.03;;
2187;SDS011;1100;52.014;8.540;2022-11-20T11:17:27;11.23;;;4.33;;
2187;SDS011;1100;52.014;8.540;2022-11-20T11:20:05;12.45;;;4.30;;
2187;SDS011;1100;52.014;8.540;2022-11-20T11:22:53;11.30;;;4.18;;
2187;SDS011;1100;52.014;8.540;2022-11-20T11:27:55;11.68;;;4.45;;
2187;SDS011;1100;52.014;8.540;2022-11-20T11:30:24;10.30;;;4.33;;
2187;SDS011;1100;52.014;8.540;2022-11-20T11:33:01;9.85;;;4.00;;
2187;SDS011;1100;52.014;8.540;2022-11-20T11:35:27;12.68;;;4.50;;
2187;SDS011;1100;52.014;8.540;2022-11-20T11:38:06;11.10;;;3.97;;
2187;SDS011;1100;52.014;8.540;2022-11-20T11:40:37;11.97;;;4.30;;
2187;SDS011;1100;52.014;8.540;2022-11-20T11:43:05;10.32;;;4.38;;
2187;SDS011;1100;52.014;8.540;2022-11-20T11:46:01;12.63;;;4.70;;
2187;SDS011;1100;52.014;8.540;2022-11-20T11:48:29;11.38;;;3.65;;
2187;SDS011;1100;52.014;8.540;2022-11-20T11:50:54;10.97;;;4.70;;
2187;SDS011;1100;52.014;8.540;2022-11-20T11:53:21;10.27;;;3.80;;
2187;SDS011;1100;52.014;8.540;2022-11-20T11:55:56;13.10;;;4.32;;
2187;SDS011;1100;52.014;8.540;2022-11-20T11:58:33;10.93;;;4.07;;
2187;SDS011;1100;52.014;8.540;2022-11-20T12:06:31;11.15;;;3.65;;
2187;SDS011;1100;52.014;8.540;2022-11-20T12:09:02;10.70;;;3.60;;
2187;SDS011;1100;52.014;8.540;2022-11-20T12:11:32;11.00;;;4.53;;
2187;SDS011;1100;52.014;8.540;2022-11-20T12:14:03;11.03;;;4.10;;
2187;SDS011;1100;52.014;8.540;2022-11-20T12:16:36;10.18;;;4.03;;
2187;SDS011;1100;52.014;8.540;2022-11-20T12:19:04;10.70;;;3.78;;
2187;SDS011;1100;52.014;8.540;2022-11-20T12:24:17;11.75;;;4.85;;
2187;SDS011;1100;52.014;8.540;2022-11-20T12:30:08;11.63;;;4.40;;
2187;SDS011;1100;52.014;8.540;2022-11-20T12:41:05;11.77;;;3.77;;
2187;SDS011;1100;52.014;8.540;2022-11-20T12:50:19;11.13;;;4.10;;
2187;SDS011;1100;52.014;8.540;2022-11-20T12:52:57;9.77;;;3.90;;
2187;SDS011;1100;52.014;8.540;2022-11-20T12:58:05;10.77;;;3.92;;
2187;SDS011;1100;52.014;8.540;2022-11-20T13:00:42;12.10;;;4.95;;
2187;SDS011;1100;52.014;8.540;2022-11-20T13:06:16;11.15;;;4.13;;
2187;SDS011;1100;52.014;8.540;2022-11-20T13:08:45;11.47;;;4.20;;
2187;SDS011;1100;52.014;8.540;2022-11-20T13:11:23;12.00;;;3.60;;
2187;SDS011;1100;52.014;8.540;2022-11-20T13:16:45;9.37;;;3.67;;
2187;SDS011;1100;52.014;8.540;2022-11-20T13:19:12;10.70;;;3.60;;
2187;SDS011;1100;52.014;8.540;2022-11-20T13:21:40;9.93;;;3.80;;
2187;SDS011;1100;52.014;8.540;2022-11-20T13:24:29;11.93;;;4.27;;
2187;SDS011;1100;52.014;8.540;2022-11-20T13:29:39;11.13;;;4.18;;
2187;SDS011;1100;52.014;8.540;2022-11-20T13:32:15;10.07;;;3.60;;
2187;SDS011;1100;52.014;8.540;2022-11-20T13:34:54;11.93;;;3.97;;
2187;SDS011;1100;52.014;8.540;2022-11-20T13:45:56;10.50;;;3.72;;
2187;SDS011;1100;52.014;8.540;2022-11-20T13:48:28;11.27;;;4.00;;
2187;SDS011;1100;52.014;8.540;2022-11-20T13:56:21;13.18;;;4.88;;
2187;SDS011;1100;52.014;8.540;2022-11-20T14:01:38;13.13;;;4.28;;
2187;SDS011;1100;52.014;8.540;2022-11-20T14:04:07;13.77;;;4.70;;
2187;SDS011;1100;52.014;8.540;2022-11-20T14:06:38;13.63;;;5.32;;
2187;SDS011;1100;52.014;8.540;2022-11-20T14:09:10;13.98;;;5.53;;
2187;SDS011;1100;52.014;8.540;2022-11-20T14:11:50;13.90;;;5.97;;
2187;SDS011;1100;52.014;8.540;2022-11-20T14:14:16;14.33;;;5.40;;
2187;SDS011;1100;52.014;8.540;2022-11-20T14:16:44;16.30;;;5.70;;
2187;SDS011;1100;52.014;8.540;2022-11-20T14:21:44;14.05;;;5.60;;
2187;SDS011;1100;52.014;8.540;2022-11-20T14:24:11;18.15;;;6.20;;
2187;SDS011;1100;52.014;8.540;2022-11-20T14:26:41;16.10;;;5.90;;
2187;SDS011;1100;52.014;8.540;2022-11-20T14:29:12;16.85;;;6.88;;
2187;SDS011;1100;52.014;8.540;2022-11-20T14:31:39;17.35;;;6.53;;
2187;SDS011;1100;52.014;8.540;2022-11-20T14:34:10;18.65;;;7.03;;
2187;SDS011;1100;52.014;8.540;2022-11-20T14:36:40;16.88;;;6.30;;
2187;SDS011;1100;52.014;8.540;2022-11-20T14:39:09;16.37;;;6.10;;
2187;SDS011;1100;52.014;8.540;2022-11-20T14:41:37;17.55;;;6.75;;
2187;SDS011;1100;52.014;8.540;2022-11-20T14:44:02;18.20;;;7.07;;
2187;SDS011;1100;52.014;8.540;2022-11-20T14:46:29;18.33;;;7.00;;
2187;SDS011;1100;52.014;8.540;2022-11-20T14:48:56;18.45;;;7.25;;
2187;SDS011;1100;52.014;8.540;2022-11-20T14:51:30;19.05;;;7.72;;
2187;SDS011;1100;52.014;8.540;2022-11-20T14:56:35;20.63;;;8.40;;
2187;SDS011;1100;52.014;8.540;2022-11-20T14:59:00;20.40;;;7.43;;
2187;SDS011;1100;52.014;8.540;2022-11-20T15:01:26;18.60;;;7.63;;
2187;SDS011;1100;52.014;8.540;2022-11-20T15:04:09;17.80;;;7.43;;
2187;SDS011;1100;52.014;8.540;2022-11-20T15:06:36;21.90;;;7.95;;
2187;SDS011;1100;52.014;8.540;2022-11-20T15:09:03;16.67;;;7.30;;
2187;SDS011;1100;52.014;8.540;2022-11-20T15:11:31;20.95;;;7.93;;
2187;SDS011;1100;52.014;8.540;2022-11-20T15:14:03;18.33;;;7.20;;
2187;SDS011;1100;52.014;8.540;2022-11-20T15:16:30;18.13;;;7.07;;
2187;SDS011;1100;52.014;8.540;2022-11-20T15:18:56;19.92;;;7.55;;
2187;SDS011;1100;52.014;8.540;2022-11-20T15:21:22;18.37;;;6.77;;
2187;SDS011;1100;52.014;8.540;2022-11-20T15:23:47;18.83;;;7.27;;
2187;SDS011;1100;52.014;8.540;2022-11-20T15:26:14;18.07;;;7.07;;
2187;SDS011;1100;52.014;8.540;2022-11-20T15:28:46;17.80;;;6.45;;
2187;SDS011;1100;52.014;8.540;2022-11-20T15:31:13;19.40;;;7.82;;
2187;SDS011;1100;52.014;8.540;2022-11-20T15:33:41;16.67;;;6.82;;
2187;SDS011;1100;52.014;8.540;2022-11-20T15:36:07;15.13;;;6.30;;
2187;SDS011;1100;52.014;8.540;2022-11-20T15:38:33;15.27;;;5.83;;
2187;SDS011;1100;52.014;8.540;2022-11-20T15:40:58;12.80;;;5.53;;
2187;SDS011;1100;52.014;8.540;2022-11-20T15:43:23;14.35;;;5.88;;
2187;SDS011;1100;52.014;8.540;2022-11-20T15:45:49;15.17;;;5.70;;
2187;SDS011;1100;52.014;8.540;2022-11-20T15:48:19;17.83;;;6.32;;
2187;SDS011;1100;52.014;8.540;2022-11-20T15:53:23;14.63;;;5.25;;
2187;SDS011;1100;52.014;8.540;2022-11-20T15:55:48;14.50;;;5.63;;
2187;SDS011;1100;52.014;8.540;2022-11-20T15:58:14;13.88;;;5.45;;
2187;SDS011;1100;52.014;8.540;2022-11-20T16:00:41;13.98;;;4.93;;
2187;SDS011;1100;52.014;8.540;2022-11-20T16:03:08;14.47;;;5.87;;
2187;SDS011;1100;52.014;8.540;2022-11-20T16:05:35;14.85;;;5.95;;
2187;SDS011;1100;52.014;8.540;2022-11-20T16:08:00;12.73;;;5.10;;
2187;SDS011;1100;52.014;8.540;2022-11-20T16:10:26;13.68;;;4.82;;
2187;SDS011;1100;52.014;8.540;2022-11-20T16:12:51;13.83;;;5.47;;
2187;SDS011;1100;52.014;8.540;2022-11-20T16:15:35;13.30;;;5.10;;
2187;SDS011;1100;52.014;8.540;2022-11-20T16:18:10;13.27;;;5.35;;
2187;SDS011;1100;52.014;8.540;2022-11-20T16:20:36;13.13;;;5.25;;
2187;SDS011;1100;52.014;8.540;2022-11-20T16:23:04;16.73;;;5.80;;
2187;SDS011;1100;52.014;8.540;2022-11-20T16:25:30;14.65;;;6.05;;
2187;SDS011;1100;52.014;8.540;2022-11-20T16:27:55;14.33;;;5.57;;
2187;SDS011;1100;52.014;8.540;2022-11-20T16:30:20;14.40;;;5.93;;
2187;SDS011;1100;52.014;8.540;2022-11-20T16:32:45;16.33;;;5.40;;
2187;SDS011;1100;52.014;8.540;2022-11-20T16:35:11;19.17;;;7.37;;
2187;SDS011;1100;52.014;8.540;2022-11-20T16:37:36;20.57;;;6.87;;
2187;SDS011;1100;52.014;8.540;2022-11-20T16:40:01;17.03;;;6.97;;
2187;SDS011;1100;52.014;8.540;2022-11-20T16:42:27;21.60;;;7.07;;
2187;SDS011;1100;52.014;8.540;2022-11-20T16:44:52;15.63;;;6.10;;
2187;SDS011;1100;52.014;8.540;2022-11-20T16:47:17;16.67;;;6.33;;
2187;SDS011;1100;52.014;8.540;2022-11-20T16:49:43;19.07;;;6.83;;